Maples, Indiana
Current Conditions -  °F | °C
As of 3:54 PM on Tuesday 27 Jan 2015 (Local Time) from KFWA Reporting Station
Clear Clear  
Wind Chill: 17°   Ceiling: Unl
Heat Index: 26°   Visibility: 10mi
Dew Point: 12°   Wind: 9mph
Humidity: 55%   Direction: 340°NNW
Pressure: 30.16"   Gusts: NA
Location:  41.0028°N, 85.0396°W
Report Text: KFWA 272054Z 34008KT 10SM CLR M03/M11 A3016 RMK AO2 SLP225 T10331111 53012
Loading
Personal Weather Stations






























Interactive Weather Map New forecast layout! Learn more

10-Day Weather Forecast

Advertisements
Track Severe Weather on mobile